createdAt,value
2018-02-23T00:01:16.120Z,-1.90
2018-02-23T00:03:42.546Z,-1.90
2018-02-23T00:06:10.408Z,-2.30
2018-02-23T00:08:36.761Z,-2.30
2018-02-23T00:11:03.861Z,-2.50
2018-02-23T00:13:30.975Z,-2.30
2018-02-23T00:15:57.342Z,-2.40
2018-02-23T00:18:23.715Z,-2.60
2018-02-23T00:20:50.060Z,-2.80
2018-02-23T00:23:17.162Z,-2.90
2018-02-23T00:25:43.532Z,-2.90
2018-02-23T00:28:10.644Z,-3.00
2018-02-23T00:30:37.002Z,-3.00
2018-02-23T00:33:03.367Z,-2.90
2018-02-23T00:35:29.791Z,-3.00
2018-02-23T00:37:56.163Z,-3.10
2018-02-23T00:40:22.537Z,-2.90
2018-02-23T00:42:49.646Z,-2.90
2018-02-23T00:45:16.036Z,-2.90
2018-02-23T00:47:42.401Z,-3.00
2018-02-23T00:50:09.498Z,-3.00
2018-02-23T00:52:36.599Z,-3.20
2018-02-23T00:55:02.962Z,-3.20
2018-02-23T00:57:29.319Z,-3.10
2018-02-23T00:59:56.446Z,-2.70
2018-02-23T01:02:22.804Z,-2.80
2018-02-23T01:04:49.180Z,-2.50
2018-02-23T01:07:15.569Z,-2.60
2018-02-23T01:09:41.950Z,-2.80
2018-02-23T01:12:08.366Z,-2.50
2018-02-23T01:14:34.763Z,-2.20
2018-02-23T01:17:01.119Z,-2.10
2018-02-23T01:19:27.499Z,-2.20
2018-02-23T01:21:53.886Z,-2.20
2018-02-23T01:24:20.260Z,-2.10
2018-02-23T01:26:46.624Z,-2.40
2018-02-23T01:29:12.989Z,-2.80
2018-02-23T01:31:39.345Z,-2.70
2018-02-23T01:34:05.719Z,-2.80
2018-02-23T01:36:32.070Z,-2.80
2018-02-23T01:38:58.429Z,-2.70
2018-02-23T01:41:24.797Z,-2.50
2018-02-23T01:43:51.882Z,-2.60
2018-02-23T01:46:18.286Z,-2.60
2018-02-23T01:48:44.666Z,-2.60
2018-02-23T01:51:11.018Z,-2.40
2018-02-23T01:53:37.380Z,-2.40
2018-02-23T01:56:03.764Z,-2.40
2018-02-23T01:58:30.124Z,-2.10
2018-02-23T02:00:57.224Z,-1.90
2018-02-23T02:03:23.634Z,-1.90
2018-02-23T02:05:49.999Z,-1.80
2018-02-23T02:08:16.396Z,-1.70
2018-02-23T02:10:42.777Z,-1.70
2018-02-23T02:13:09.194Z,-1.50
2018-02-23T02:15:35.579Z,-1.60
2018-02-23T02:18:02.749Z,-1.70
2018-02-23T02:20:29.123Z,-1.80
2018-02-23T02:22:55.489Z,-2.00
2018-02-23T02:25:22.611Z,-2.10
2018-02-23T02:27:49.000Z,-2.10
2018-02-23T02:30:15.380Z,-2.10
2018-02-23T02:32:41.740Z,-2.20
2018-02-23T02:35:08.084Z,-2.20
2018-02-23T02:37:34.455Z,-2.30
2018-02-23T02:40:00.819Z,-2.50
2018-02-23T02:42:27.919Z,-2.40
2018-02-23T02:44:54.329Z,-2.40
2018-02-23T02:47:20.705Z,-2.30
2018-02-23T02:49:47.050Z,-2.30
2018-02-23T02:52:13.435Z,-2.80
2018-02-23T02:54:40.550Z,-3.10
2018-02-23T02:57:07.658Z,-3.10
2018-02-23T02:59:34.044Z,-3.10
2018-02-23T03:02:00.410Z,-3.40
2018-02-23T03:04:26.779Z,-3.30
2018-02-23T03:06:53.872Z,-3.50
2018-02-23T03:09:20.227Z,-3.50
2018-02-23T03:11:46.602Z,-3.80
2018-02-23T03:14:15.804Z,-3.70
2018-02-23T03:16:42.200Z,-3.70
2018-02-23T03:19:08.584Z,-3.60
2018-02-23T03:21:34.970Z,-3.50
2018-02-23T03:24:01.330Z,-3.60
2018-02-23T03:26:28.431Z,-3.50
2018-02-23T03:28:54.801Z,-3.50
2018-02-23T03:31:21.175Z,-3.10
2018-02-23T03:33:47.564Z,-2.80
2018-02-23T03:36:14.665Z,-2.50
2018-02-23T03:38:41.061Z,-2.60
2018-02-23T03:41:07.432Z,-2.60
2018-02-23T03:43:33.790Z,-2.50
2018-02-23T03:46:00.901Z,-2.40
2018-02-23T03:48:27.267Z,-2.40
2018-02-23T03:50:53.635Z,-2.40
2018-02-23T03:53:20.009Z,-2.40
2018-02-23T03:55:46.375Z,-2.40
2018-02-23T03:58:13.472Z,-3.00
2018-02-23T04:00:39.842Z,-3.00
2018-02-23T04:03:06.952Z,-2.60
2018-02-23T04:05:33.304Z,-2.60
2018-02-23T04:07:59.688Z,-2.50
2018-02-23T04:10:26.050Z,-2.50
2018-02-23T04:12:52.415Z,-2.50
2018-02-23T04:15:18.788Z,-2.70
2018-02-23T04:17:45.152Z,-2.80
2018-02-23T04:20:11.532Z,-2.60
2018-02-23T04:22:37.902Z,-2.70
2018-02-23T04:25:04.295Z,-2.90
2018-02-23T04:27:31.400Z,-3.00
2018-02-23T04:29:57.771Z,-3.00
2018-02-23T04:32:24.137Z,-3.30
2018-02-23T04:34:50.494Z,-3.00
2018-02-23T04:37:16.843Z,-2.90
2018-02-23T04:39:43.244Z,-3.00
2018-02-23T04:42:09.614Z,-3.00
2018-02-23T04:44:36.718Z,-3.30
2018-02-23T04:47:03.090Z,-3.30
2018-02-23T04:49:29.476Z,-3.50
2018-02-23T04:51:55.838Z,-3.60
2018-02-23T04:54:22.212Z,-3.40
2018-02-23T04:56:48.575Z,-3.40
2018-02-23T04:59:14.939Z,-3.50
2018-02-23T05:01:42.779Z,-3.40
2018-02-23T05:04:09.154Z,-3.50
2018-02-23T05:06:36.246Z,-3.60
2018-02-23T05:09:02.655Z,-3.60
2018-02-23T05:11:29.035Z,-3.60
2018-02-23T05:13:55.412Z,-3.40
2018-02-23T05:16:21.870Z,-3.50
2018-02-23T05:18:48.278Z,-3.30
2018-02-23T05:21:14.658Z,-3.20
2018-02-23T05:23:41.030Z,-3.10
2018-02-23T05:26:07.441Z,-3.00
2018-02-23T05:28:33.919Z,-2.90
2018-02-23T05:31:00.314Z,-3.00
2018-02-23T05:33:27.418Z,-3.20
2018-02-23T05:35:53.779Z,-3.20
2018-02-23T05:38:24.090Z,-3.10
2018-02-23T05:40:50.450Z,-3.30
2018-02-23T05:43:16.802Z,-3.40
2018-02-23T05:45:43.946Z,-3.80
2018-02-23T05:48:11.056Z,-3.70
2018-02-23T05:50:37.423Z,-3.70
2018-02-23T05:53:04.652Z,-3.30
2018-02-23T05:55:31.030Z,-3.30
2018-02-23T05:57:57.387Z,-3.20
2018-02-23T06:00:23.754Z,-3.10
2018-02-23T06:02:50.867Z,-3.10
2018-02-23T06:05:17.286Z,-3.10
2018-02-23T06:07:43.674Z,-3.10
2018-02-23T06:10:10.766Z,-3.00
2018-02-23T06:12:37.119Z,-3.00
2018-02-23T06:15:03.503Z,-3.10
2018-02-23T06:17:35.910Z,-3.20
2018-02-23T06:20:08.380Z,-3.20
2018-02-23T06:22:34.781Z,-3.20
2018-02-23T06:25:01.892Z,-3.20
2018-02-23T06:27:29.011Z,-3.20
2018-02-23T06:29:55.382Z,-3.20
2018-02-23T06:32:22.535Z,-3.00
2018-02-23T06:34:49.673Z,-2.90
2018-02-23T06:37:16.046Z,-3.00
2018-02-23T06:39:42.437Z,-2.90
2018-02-23T06:42:09.556Z,-2.90
2018-02-23T06:44:35.922Z,-2.90
2018-02-23T06:47:08.291Z,-3.00
2018-02-23T06:49:34.672Z,-2.90
2018-02-23T06:52:01.082Z,-3.00
2018-02-23T06:54:27.455Z,-2.90
2018-02-23T06:56:53.859Z,-2.90
2018-02-23T06:59:20.218Z,-2.80
2018-02-23T07:01:46.621Z,-2.80
2018-02-23T07:04:13.003Z,-2.70
2018-02-23T07:06:39.370Z,-2.60
2018-02-23T07:09:06.485Z,-2.80
2018-02-23T07:11:32.855Z,-2.80
2018-02-23T07:13:59.203Z,-2.90
2018-02-23T07:16:25.584Z,-2.90
2018-02-23T07:18:51.936Z,-2.90
2018-02-23T07:21:19.024Z,-2.80
2018-02-23T07:23:45.401Z,-2.80
2018-02-23T07:26:12.509Z,-2.30
2018-02-23T07:28:38.867Z,-2.30
2018-02-23T07:31:05.238Z,-2.00
2018-02-23T07:33:31.599Z,-1.80
2018-02-23T07:35:57.991Z,-1.60
2018-02-23T07:38:24.368Z,-1.50
2018-02-23T07:40:50.743Z,-1.30
2018-02-23T07:43:17.861Z,-1.40
2018-02-23T07:45:44.275Z,-1.40
2018-02-23T07:48:10.683Z,-1.20
2018-02-23T07:50:37.123Z,-1.20
2018-02-23T07:53:03.522Z,-1.30
2018-02-23T07:55:30.642Z,-1.80
2018-02-23T07:57:58.508Z,-1.80
2018-02-23T08:00:24.909Z,-1.80
2018-02-23T08:02:51.301Z,-1.60
2018-02-23T08:05:18.421Z,-1.30
2018-02-23T08:07:44.778Z,-1.30
2018-02-23T08:10:11.924Z,-1.30
2018-02-23T08:12:39.046Z,-1.60
2018-02-23T08:15:05.451Z,-1.60
2018-02-23T08:17:31.806Z,-1.40
2018-02-23T08:19:58.193Z,-1.50
2018-02-23T08:22:24.586Z,-1.30
2018-02-23T08:24:52.448Z,-1.00
2018-02-23T08:27:18.824Z,-1.00
2018-02-23T08:29:45.185Z,-0.90
2018-02-23T08:32:11.551Z,-1.00
2018-02-23T08:34:37.924Z,-1.20
2018-02-23T08:37:04.319Z,-1.30
2018-02-23T08:39:31.435Z,-1.50
2018-02-23T08:41:57.926Z,-1.50
2018-02-23T08:44:24.407Z,-1.40
2018-02-23T08:46:50.769Z,-1.10
2018-02-23T08:49:17.900Z,-1.20
2018-02-23T08:51:44.281Z,-1.20
2018-02-23T08:54:10.673Z,-0.90
2018-02-23T08:56:37.071Z,-0.70
2018-02-23T08:59:03.472Z,-1.20
2018-02-23T09:01:30.590Z,-1.00
2018-02-23T09:03:56.967Z,-1.00
2018-02-23T09:06:23.335Z,-1.00
2018-02-23T09:08:49.734Z,-1.00
2018-02-23T09:11:16.150Z,-1.50
2018-02-23T09:13:42.514Z,-1.20
2018-02-23T09:16:08.912Z,-1.40
2018-02-23T09:18:35.278Z,-1.40
2018-02-23T09:21:01.652Z,-1.90
2018-02-23T09:23:28.794Z,-1.60
2018-02-23T09:25:55.183Z,-1.60
2018-02-23T09:28:21.578Z,-1.80
2018-02-23T09:30:48.684Z,-2.20
2018-02-23T09:33:15.119Z,-2.20
2018-02-23T09:35:41.503Z,-1.90
2018-02-23T09:38:07.910Z,-1.80
2018-02-23T09:40:35.054Z,-2.10
2018-02-23T09:43:01.427Z,-2.10
2018-02-23T09:45:27.798Z,-1.80
2018-02-23T09:47:54.168Z,-1.60
2018-02-23T09:50:20.524Z,-1.20
2018-02-23T09:52:46.902Z,-1.60
2018-02-23T09:55:13.275Z,-1.70
2018-02-23T09:57:39.619Z,-1.40
2018-02-23T10:00:06.012Z,-0.70
2018-02-23T10:02:33.104Z,-0.70
2018-02-23T10:04:59.482Z,-0.70
2018-02-23T10:07:26.671Z,-0.30
2018-02-23T10:09:53.023Z,-0.30
2018-02-23T10:12:19.390Z,-0.50
2018-02-23T10:14:45.809Z,-0.80
2018-02-23T10:17:12.184Z,-0.90
2018-02-23T10:19:38.600Z,-0.80
2018-02-23T10:22:05.778Z,-0.20
2018-02-23T10:24:32.134Z,-0.30
2018-02-23T10:26:58.534Z,-0.20
2018-02-23T10:29:24.894Z,-0.20
2018-02-23T10:31:51.260Z,0.00
2018-02-23T10:34:17.631Z,-0.10
2018-02-23T10:36:44.032Z,0.00
2018-02-23T10:39:10.443Z,-0.40
2018-02-23T10:41:37.082Z,-0.70
2018-02-23T10:44:03.474Z,-0.70
2018-02-23T10:46:29.874Z,-0.40
2018-02-23T10:48:56.261Z,-0.30
2018-02-23T10:51:22.717Z,-0.20
2018-02-23T10:53:49.863Z,-0.30
2018-02-23T10:56:17.131Z,-0.40
2018-02-23T10:58:44.296Z,0.10
2018-02-23T11:01:11.422Z,-0.20
2018-02-23T11:03:37.794Z,-0.20
2018-02-23T11:06:04.211Z,-0.30
2018-02-23T11:08:31.364Z,0.00
2018-02-23T11:10:57.742Z,0.00
2018-02-23T11:13:24.120Z,-0.10
2018-02-23T11:15:51.224Z,0.20
2018-02-23T11:18:17.580Z,0.20
2018-02-23T11:20:43.991Z,0.20
2018-02-23T11:23:10.354Z,0.70
2018-02-23T11:25:36.710Z,0.60
2018-02-23T11:28:03.072Z,0.40
2018-02-23T11:30:30.260Z,0.50
2018-02-23T11:32:56.654Z,0.50
2018-02-23T11:35:23.022Z,0.80
2018-02-23T11:37:49.407Z,0.70
2018-02-23T11:40:15.767Z,0.60
2018-02-23T11:42:42.132Z,0.60
2018-02-23T11:45:09.262Z,0.40
2018-02-23T11:47:35.630Z,0.40
2018-02-23T11:50:02.003Z,0.40
2018-02-23T11:52:28.372Z,0.20
2018-02-23T11:54:54.714Z,0.10
2018-02-23T11:57:27.127Z,0.30
2018-02-23T11:59:53.476Z,0.80
2018-02-23T12:02:19.855Z,1.00
2018-02-23T12:04:46.250Z,1.50
2018-02-23T12:07:12.624Z,1.00
2018-02-23T12:09:39.010Z,1.10
2018-02-23T12:12:05.379Z,1.00
2018-02-23T12:14:32.484Z,1.10
2018-02-23T12:16:58.867Z,1.10
2018-02-23T12:19:25.248Z,1.60
2018-02-23T12:21:51.619Z,1.40
2018-02-23T12:24:18.733Z,1.40
2018-02-23T12:26:45.117Z,1.40
2018-02-23T12:29:11.494Z,1.00
2018-02-23T12:31:37.854Z,0.90
2018-02-23T12:34:04.988Z,1.20
2018-02-23T12:36:31.329Z,1.20
2018-02-23T12:38:58.442Z,1.20
2018-02-23T12:41:24.833Z,1.10
2018-02-23T12:43:51.271Z,0.90
2018-02-23T12:46:17.659Z,0.90
2018-02-23T12:48:45.512Z,1.10
2018-02-23T12:51:11.918Z,1.10
2018-02-23T12:53:38.287Z,1.10
2018-02-23T12:56:04.668Z,1.10
2018-02-23T12:58:31.042Z,0.70
2018-02-23T13:00:57.461Z,0.60
2018-02-23T13:03:23.847Z,0.40
2018-02-23T13:05:50.944Z,0.80
2018-02-23T13:08:17.370Z,0.80
2018-02-23T13:10:43.744Z,0.50
2018-02-23T13:13:10.098Z,0.50
2018-02-23T13:15:37.213Z,0.10
2018-02-23T13:18:05.075Z,0.50
2018-02-23T13:20:31.444Z,0.50
2018-02-23T13:22:57.810Z,0.80
2018-02-23T13:25:24.236Z,0.50
2018-02-23T13:27:56.749Z,0.80
2018-02-23T13:30:23.189Z,1.10
2018-02-23T13:32:49.620Z,1.10
2018-02-23T13:35:16.055Z,0.80
2018-02-23T13:37:42.465Z,0.50
2018-02-23T13:40:08.892Z,0.50
2018-02-23T13:42:35.289Z,0.40
2018-02-23T13:45:01.706Z,0.20
2018-02-23T13:47:28.136Z,-0.10
2018-02-23T13:49:55.227Z,0.00
2018-02-23T13:52:21.591Z,-0.10
2018-02-23T13:54:52.061Z,0.00
2018-02-23T13:57:18.461Z,-0.10
2018-02-23T13:59:45.599Z,0.00
2018-02-23T14:02:13.447Z,0.30
2018-02-23T14:04:39.814Z,0.30
2018-02-23T14:07:12.979Z,0.30
2018-02-23T14:09:39.384Z,0.30
2018-02-23T14:12:05.763Z,0.70
2018-02-23T14:14:32.878Z,0.40
2018-02-23T14:16:59.267Z,0.40
2018-02-23T14:19:25.632Z,0.80
2018-02-23T14:21:51.993Z,0.70
2018-02-23T14:24:18.408Z,0.80
2018-02-23T14:26:44.762Z,0.40
2018-02-23T14:29:11.871Z,0.50
2018-02-23T14:31:38.238Z,0.50
2018-02-23T14:34:04.622Z,0.50
2018-02-23T14:36:30.987Z,0.50
2018-02-23T14:38:57.333Z,0.60
2018-02-23T14:41:23.701Z,0.80
2018-02-23T14:43:50.076Z,1.10
2018-02-23T14:46:17.350Z,0.90
2018-02-23T14:48:56.709Z,0.30
2018-02-23T14:51:23.052Z,0.30
2018-02-23T14:53:49.436Z,0.60
2018-02-23T14:56:15.803Z,0.50
2018-02-23T14:58:42.178Z,0.50
2018-02-23T15:01:09.356Z,0.10
2018-02-23T15:03:35.729Z,0.10
2018-02-23T15:06:02.091Z,-0.10
2018-02-23T15:08:28.458Z,0.00
2018-02-23T15:10:54.820Z,0.00
2018-02-23T15:13:21.211Z,0.30
2018-02-23T15:15:47.598Z,0.30
2018-02-23T15:18:13.975Z,0.20
2018-02-23T15:20:40.347Z,0.40
2018-02-23T15:23:07.462Z,0.20
2018-02-23T15:25:33.814Z,0.10
2018-02-23T15:28:00.920Z,0.20
2018-02-23T15:30:39.654Z,0.20
2018-02-23T15:33:06.030Z,0.20
2018-02-23T15:35:32.383Z,0.30
2018-02-23T15:37:58.743Z,0.50
2018-02-23T15:40:25.182Z,0.30
2018-02-23T15:42:51.589Z,0.30
2018-02-23T15:45:17.991Z,0.40
2018-02-23T15:47:49.391Z,0.70
2018-02-23T15:50:23.466Z,1.00
2018-02-23T15:52:49.945Z,1.00
2018-02-23T15:55:16.349Z,0.80
2018-02-23T15:57:49.023Z,0.60
2018-02-23T16:00:15.462Z,0.70
2018-02-23T16:02:41.990Z,0.70
2018-02-23T16:05:08.402Z,0.30
2018-02-23T16:07:34.836Z,0.00
2018-02-23T16:10:01.233Z,-0.10
2018-02-23T16:12:28.408Z,-0.20
2018-02-23T16:14:54.875Z,-0.30
2018-02-23T16:17:21.350Z,-0.30
2018-02-23T16:19:47.718Z,-0.30
2018-02-23T16:22:14.108Z,-0.30
2018-02-23T16:24:40.519Z,-0.20
2018-02-23T16:27:06.886Z,-0.30
2018-02-23T16:29:34.068Z,-0.40
2018-02-23T16:32:00.424Z,-0.40
2018-02-23T16:34:26.966Z,-0.30
2018-02-23T16:36:53.366Z,-0.40
2018-02-23T16:39:19.755Z,-0.30
2018-02-23T16:41:46.899Z,-0.40
2018-02-23T16:44:13.294Z,-0.40
2018-02-23T16:46:39.704Z,-0.60
2018-02-23T16:49:06.098Z,-0.70
2018-02-23T16:51:32.490Z,-0.60
2018-02-23T16:53:58.927Z,-0.70
2018-02-23T16:56:25.310Z,-0.80
2018-02-23T16:58:52.447Z,-0.90
2018-02-23T17:01:20.491Z,-0.90
2018-02-23T17:03:46.980Z,-0.90
2018-02-23T17:06:13.389Z,-0.90
2018-02-23T17:08:40.498Z,-1.10
2018-02-23T17:11:06.891Z,-1.10
2018-02-23T17:13:33.286Z,-0.90
2018-02-23T17:15:59.701Z,-1.00
2018-02-23T17:18:26.087Z,-1.00
2018-02-23T17:20:52.484Z,-1.00
2018-02-23T17:23:18.869Z,-0.90
2018-02-23T17:25:45.237Z,-0.90
2018-02-23T17:28:11.616Z,-0.80
2018-02-23T17:30:37.982Z,-0.70
2018-02-23T17:33:04.352Z,-0.60
2018-02-23T17:35:31.468Z,-0.80
2018-02-23T17:37:57.857Z,-0.80
2018-02-23T17:40:24.217Z,-0.80
2018-02-23T17:42:50.588Z,-1.00
2018-02-23T17:45:16.950Z,-0.90
2018-02-23T17:47:43.313Z,-0.90
2018-02-23T17:50:09.703Z,-0.90
2018-02-23T17:52:36.085Z,-1.00
2018-02-23T17:55:02.516Z,-1.10
2018-02-23T17:57:28.904Z,-1.10
2018-02-23T17:59:55.286Z,-1.10
2018-02-23T18:02:21.722Z,-1.40
2018-02-23T18:04:48.091Z,-1.60
2018-02-23T18:07:15.198Z,-1.50
2018-02-23T18:09:41.560Z,-1.50
2018-02-23T18:12:08.689Z,-1.80
2018-02-23T18:14:35.080Z,-1.80
2018-02-23T18:17:01.460Z,-1.80
2018-02-23T18:19:27.832Z,-2.00
2018-02-23T18:21:54.211Z,-2.00
2018-02-23T18:24:20.593Z,-1.90
2018-02-23T18:26:46.984Z,-1.80
2018-02-23T18:29:13.346Z,-1.50
2018-02-23T18:31:41.025Z,-1.50
2018-02-23T18:34:07.379Z,-1.50
2018-02-23T18:36:33.775Z,-2.00
2018-02-23T18:39:00.876Z,-2.10
2018-02-23T18:41:27.269Z,-2.20
2018-02-23T18:43:53.651Z,-2.00
2018-02-23T18:46:20.053Z,-2.20
2018-02-23T18:48:46.422Z,-2.20
2018-02-23T18:51:12.811Z,-2.50
2018-02-23T18:53:39.198Z,-2.30
2018-02-23T18:56:06.351Z,-2.50
2018-02-23T19:01:05.705Z,-2.60
2018-02-23T19:03:32.152Z,-2.60
2018-02-23T19:05:58.582Z,-2.40
2018-02-23T19:08:25.021Z,-2.40
2018-02-23T19:10:51.444Z,-2.30
2018-02-23T19:13:17.854Z,-2.50
2018-02-23T19:15:44.294Z,-2.80
2018-02-23T19:18:10.700Z,-2.80
2018-02-23T19:20:37.869Z,-3.00
2018-02-23T19:23:04.272Z,-3.00
2018-02-23T19:25:31.462Z,-3.20
2018-02-23T19:27:58.771Z,-3.20
2018-02-23T19:30:25.236Z,-3.20
2018-02-23T19:32:51.703Z,-3.30
2018-02-23T19:35:18.098Z,-3.40
2018-02-23T19:37:44.539Z,-3.50
2018-02-23T19:40:11.912Z,-3.50
2018-02-23T19:42:38.289Z,-3.60
2018-02-23T19:45:05.390Z,-3.40
2018-02-23T19:47:31.774Z,-3.40
2018-02-23T19:49:58.922Z,-3.10
2018-02-23T19:52:26.052Z,-3.10
2018-02-23T19:54:52.435Z,-3.10
2018-02-23T19:57:18.844Z,-2.90
2018-02-23T19:59:46.005Z,-3.30
2018-02-23T20:02:12.465Z,-3.40
2018-02-23T20:04:39.533Z,-3.10
2018-02-23T20:07:05.919Z,-3.10
2018-02-23T20:09:33.036Z,-3.50
2018-02-23T20:11:59.402Z,-3.50
2018-02-23T20:14:25.771Z,-3.50
2018-02-23T20:16:52.152Z,-3.30
2018-02-23T20:19:20.020Z,-3.50
2018-02-23T20:21:47.151Z,-3.50
2018-02-23T20:24:13.519Z,-3.60
2018-02-23T20:26:39.911Z,-3.60
2018-02-23T20:29:06.365Z,-3.60
2018-02-23T20:31:33.482Z,-3.60
2018-02-23T20:33:59.857Z,-3.60
2018-02-23T20:36:26.227Z,-3.50
2018-02-23T20:38:52.587Z,-3.60
2018-02-23T20:41:18.951Z,-3.40
2018-02-23T20:43:45.361Z,-3.00
2018-02-23T20:46:12.496Z,-3.00
2018-02-23T20:48:38.868Z,-3.00
2018-02-23T20:51:05.231Z,-2.90
2018-02-23T20:53:31.591Z,-2.80
2018-02-23T20:55:57.978Z,-2.90
2018-02-23T20:58:24.344Z,-2.70
2018-02-23T21:00:50.703Z,-3.00
2018-02-23T21:03:17.801Z,-2.90
2018-02-23T21:05:44.174Z,-2.90
2018-02-23T21:08:10.573Z,-3.00
2018-02-23T21:10:36.960Z,-3.20
2018-02-23T21:13:03.326Z,-3.20
2018-02-23T21:15:29.693Z,-2.90
2018-02-23T21:17:56.050Z,-2.90
2018-02-23T21:20:23.156Z,-3.30
2018-02-23T21:22:49.519Z,-3.40
2018-02-23T21:25:15.869Z,-3.20
2018-02-23T21:27:42.332Z,-3.20
2018-02-23T21:30:08.694Z,-3.10
2018-02-23T21:32:35.085Z,-3.00
2018-02-23T21:35:01.462Z,-3.30
2018-02-23T21:37:27.821Z,-3.20
2018-02-23T21:39:54.918Z,-3.30
2018-02-23T21:42:21.309Z,-3.30
2018-02-23T21:44:47.674Z,-3.00
2018-02-23T21:47:14.062Z,-3.30
2018-02-23T21:49:41.149Z,-3.30
2018-02-23T21:52:07.551Z,-3.30
2018-02-23T21:54:34.714Z,-3.50
2018-02-23T21:57:01.090Z,-3.60
2018-02-23T21:59:27.502Z,-3.70
2018-02-23T22:01:53.878Z,-3.80
2018-02-23T22:04:21.028Z,-4.00
2018-02-23T22:06:48.154Z,-4.00
2018-02-23T22:09:15.277Z,-3.70
2018-02-23T22:11:41.691Z,-3.70
2018-02-23T22:14:08.057Z,-3.90
2018-02-23T22:16:34.418Z,-3.80
2018-02-23T22:19:01.544Z,-3.60
2018-02-23T22:21:27.938Z,-3.60
2018-02-23T22:23:54.318Z,-3.70
2018-02-23T22:26:21.448Z,-3.30
2018-02-23T22:28:47.869Z,-3.30
2018-02-23T22:31:14.232Z,-3.50
2018-02-23T22:33:42.070Z,-3.30
2018-02-23T22:36:08.460Z,-3.30
2018-02-23T22:38:34.822Z,-3.50
2018-02-23T22:41:01.975Z,-3.20
2018-02-23T22:43:28.341Z,-3.20
2018-02-23T22:45:54.757Z,-3.00
2018-02-23T22:48:21.114Z,-3.00
2018-02-23T22:50:47.471Z,-3.00
2018-02-23T22:53:13.889Z,-3.00
2018-02-23T22:55:41.027Z,-3.20
2018-02-23T22:58:08.130Z,-3.10
2018-02-23T23:00:34.488Z,-3.10
2018-02-23T23:03:00.844Z,-3.20
2018-02-23T23:05:27.950Z,-3.10
2018-02-23T23:07:54.337Z,-3.20
2018-02-23T23:10:20.738Z,-3.40
2018-02-23T23:12:47.097Z,-3.30
2018-02-23T23:15:14.211Z,-3.40
2018-02-23T23:17:40.585Z,-3.40
2018-02-23T23:20:06.946Z,-3.60
2018-02-23T23:22:33.345Z,-3.50
2018-02-23T23:24:59.725Z,-3.60
2018-02-23T23:27:26.110Z,-3.80
2018-02-23T23:29:52.501Z,-3.90
2018-02-23T23:32:18.881Z,-3.90
2018-02-23T23:34:45.274Z,-3.90
2018-02-23T23:37:12.381Z,-3.90
2018-02-23T23:39:38.752Z,-3.90
2018-02-23T23:42:05.845Z,-4.10
2018-02-23T23:44:32.199Z,-4.10
2018-02-23T23:46:58.553Z,-4.20
2018-02-23T23:49:24.926Z,-4.40
2018-02-23T23:51:51.275Z,-4.40
2018-02-23T23:54:17.635Z,-4.40
2018-02-23T23:56:44.014Z,-4.50
2018-02-23T23:59:10.393Z,-4.20
